sensor_id;sensor_type;location;lat;lon;timestamp;pressure;altitude;pressure_sealevel;temperature;humidity
2875;BME280;1445;52.600;13.328;2023-07-31T00:00:04;100665.28;;;14.70;nan
2875;BME280;1445;52.600;13.328;2023-07-31T00:02:30;100669.22;;;14.69;nan
2875;BME280;1445;52.600;13.328;2023-07-31T00:04:55;100665.47;;;14.65;nan
2875;BME280;1445;52.600;13.328;2023-07-31T00:07:21;100664.81;;;14.68;nan
2875;BME280;1445;52.600;13.328;2023-07-31T00:09:46;100664.81;;;14.68;nan
2875;BME280;1445;52.600;13.328;2023-07-31T00:12:11;100658.13;;;14.69;nan
2875;BME280;1445;52.600;13.328;2023-07-31T00:14:37;100664.97;;;14.72;nan
2875;BME280;1445;52.600;13.328;2023-07-31T00:17:02;100652.72;;;14.73;nan
2875;BME280;1445;52.600;13.328;2023-07-31T00:19:28;100655.66;;;14.76;nan
2875;BME280;1445;52.600;13.328;2023-07-31T00:21:53;100655.66;;;14.76;nan
2875;BME280;1445;52.600;13.328;2023-07-31T00:24:19;100657.09;;;14.83;nan
2875;BME280;1445;52.600;13.328;2023-07-31T00:26:44;100654.78;;;14.85;nan
2875;BME280;1445;52.600;13.328;2023-07-31T00:29:12;100649.72;;;14.87;nan
2875;BME280;1445;52.600;13.328;2023-07-31T00:31:38;100647.09;;;14.90;nan
2875;BME280;1445;52.600;13.328;2023-07-31T00:34:03;100648.69;;;15.00;nan
2875;BME280;1445;52.600;13.328;2023-07-31T00:36:29;100644.63;;;14.97;nan
2875;BME280;1445;52.600;13.328;2023-07-31T00:38:54;100650.47;;;15.04;nan
2875;BME280;1445;52.600;13.328;2023-07-31T00:41:19;100639.34;;;15.04;nan
2875;BME280;1445;52.600;13.328;2023-07-31T00:43:45;100634.63;;;15.05;nan
2875;BME280;1445;52.600;13.328;2023-07-31T00:46:10;100632.78;;;15.09;nan
2875;BME280;1445;52.600;13.328;2023-07-31T00:48:37;100633.16;;;15.08;nan
2875;BME280;1445;52.600;13.328;2023-07-31T00:51:04;100625.63;;;15.08;nan
2875;BME280;1445;52.600;13.328;2023-07-31T00:53:29;100614.56;;;14.99;nan
2875;BME280;1445;52.600;13.328;2023-07-31T00:55:55;100615.03;;;15.01;nan
2875;BME280;1445;52.600;13.328;2023-07-31T00:58:21;100611.00;;;14.99;nan
2875;BME280;1445;52.600;13.328;2023-07-31T01:00:46;100610.16;;;14.98;nan
2875;BME280;1445;52.600;13.328;2023-07-31T01:03:12;100601.97;;;15.02;nan
2875;BME280;1445;52.600;13.328;2023-07-31T01:10:49;100606.47;;;15.15;nan
2875;BME280;1445;52.600;13.328;2023-07-31T01:13:17;100598.34;;;15.10;nan
2875;BME280;1445;52.600;13.328;2023-07-31T01:15:43;100597.53;;;15.10;nan
2875;BME280;1445;52.600;13.328;2023-07-31T01:18:08;100589.94;;;15.19;nan
2875;BME280;1445;52.600;13.328;2023-07-31T01:20:35;100595.50;;;15.19;nan
2875;BME280;1445;52.600;13.328;2023-07-31T01:25:54;100588.63;;;15.25;nan
2875;BME280;1445;52.600;13.328;2023-07-31T01:30:58;100612.31;;;15.22;nan
2875;BME280;1445;52.600;13.328;2023-07-31T01:33:25;100609.38;;;15.19;nan
2875;BME280;1445;52.600;13.328;2023-07-31T01:35:51;100619.91;;;15.13;nan
2875;BME280;1445;52.600;13.328;2023-07-31T01:38:21;100614.19;;;15.10;nan
2875;BME280;1445;52.600;13.328;2023-07-31T01:40:51;100621.03;;;15.12;nan
2875;BME280;1445;52.600;13.328;2023-07-31T01:43:17;100621.53;;;15.06;nan
2875;BME280;1445;52.600;13.328;2023-07-31T01:45:42;100620.28;;;15.03;nan
2875;BME280;1445;52.600;13.328;2023-07-31T01:48:08;100628.97;;;14.93;nan
2875;BME280;1445;52.600;13.328;2023-07-31T01:50:33;100631.75;;;14.93;nan
2875;BME280;1445;52.600;13.328;2023-07-31T01:52:59;100640.31;;;14.79;nan
2875;BME280;1445;52.600;13.328;2023-07-31T01:55:24;100639.13;;;14.89;nan
2875;BME280;1445;52.600;13.328;2023-07-31T01:57:49;100643.38;;;14.86;nan
2875;BME280;1445;52.600;13.328;2023-07-31T02:00:15;100646.16;;;14.77;nan
2875;BME280;1445;52.600;13.328;2023-07-31T02:02:40;100653.69;;;14.77;nan
2875;BME280;1445;52.600;13.328;2023-07-31T02:05:06;100645.50;;;14.80;nan
2875;BME280;1445;52.600;13.328;2023-07-31T02:07:31;100647.50;;;14.71;nan
2875;BME280;1445;52.600;13.328;2023-07-31T02:09:57;100645.34;;;14.77;nan
2875;BME280;1445;52.600;13.328;2023-07-31T02:12:22;100646.47;;;14.85;nan
2875;BME280;1445;52.600;13.328;2023-07-31T02:14:48;100649.06;;;14.90;nan
2875;BME280;1445;52.600;13.328;2023-07-31T02:17:13;100644.47;;;14.94;nan
2875;BME280;1445;52.600;13.328;2023-07-31T02:19:38;100642.47;;;15.03;nan
2875;BME280;1445;52.600;13.328;2023-07-31T02:22:04;100637.59;;;15.00;nan
2875;BME280;1445;52.600;13.328;2023-07-31T02:24:29;100633.34;;;15.02;nan
2875;BME280;1445;52.600;13.328;2023-07-31T02:26:55;100633.94;;;15.08;nan
2875;BME280;1445;52.600;13.328;2023-07-31T02:29:21;100635.72;;;15.13;nan
2875;BME280;1445;52.600;13.328;2023-07-31T02:31:46;100633.78;;;15.13;nan
2875;BME280;1445;52.600;13.328;2023-07-31T02:34:11;100630.66;;;15.15;nan
2875;BME280;1445;52.600;13.328;2023-07-31T02:36:37;100630.28;;;15.25;nan
2875;BME280;1445;52.600;13.328;2023-07-31T02:39:02;100624.03;;;15.28;nan
2875;BME280;1445;52.600;13.328;2023-07-31T02:41:28;100624.19;;;15.32;nan
2875;BME280;1445;52.600;13.328;2023-07-31T02:43:53;100620.91;;;15.30;nan
2875;BME280;1445;52.600;13.328;2023-07-31T02:46:19;100627.50;;;15.25;nan
2875;BME280;1445;52.600;13.328;2023-07-31T02:48:45;100617.47;;;15.33;nan
2875;BME280;1445;52.600;13.328;2023-07-31T02:51:10;100607.81;;;15.39;nan
2875;BME280;1445;52.600;13.328;2023-07-31T02:53:36;100612.06;;;15.36;nan
2875;BME280;1445;52.600;13.328;2023-07-31T02:56:01;100607.00;;;15.38;nan
2875;BME280;1445;52.600;13.328;2023-07-31T02:58:26;100605.22;;;15.34;nan
2875;BME280;1445;52.600;13.328;2023-07-31T03:00:52;100598.97;;;15.37;nan
2875;BME280;1445;52.600;13.328;2023-07-31T03:03:17;100604.88;;;15.35;nan
2875;BME280;1445;52.600;13.328;2023-07-31T03:05:42;100598.38;;;15.31;nan
2875;BME280;1445;52.600;13.328;2023-07-31T03:08:08;100590.84;;;15.32;nan
2875;BME280;1445;52.600;13.328;2023-07-31T03:10:33;100591.13;;;15.39;nan
2875;BME280;1445;52.600;13.328;2023-07-31T03:12:59;100593.50;;;15.49;nan
2875;BME280;1445;52.600;13.328;2023-07-31T03:15:24;100594.81;;;15.51;nan
2875;BME280;1445;52.600;13.328;2023-07-31T03:17:49;100602.13;;;15.56;nan
2875;BME280;1445;52.600;13.328;2023-07-31T03:20:15;100592.03;;;15.51;nan
2875;BME280;1445;52.600;13.328;2023-07-31T03:22:40;100595.75;;;15.56;nan
2875;BME280;1445;52.600;13.328;2023-07-31T03:25:06;100592.44;;;15.62;nan
2875;BME280;1445;52.600;13.328;2023-07-31T03:27:31;100578.47;;;15.50;nan
2875;BME280;1445;52.600;13.328;2023-07-31T03:29:57;100570.94;;;15.50;nan
2875;BME280;1445;52.600;13.328;2023-07-31T03:32:22;100567.84;;;15.52;nan
2875;BME280;1445;52.600;13.328;2023-07-31T03:34:49;100563.75;;;15.49;nan
2875;BME280;1445;52.600;13.328;2023-07-31T03:37:14;100553.13;;;15.51;nan
2875;BME280;1445;52.600;13.328;2023-07-31T03:39:40;100551.84;;;15.49;nan
2875;BME280;1445;52.600;13.328;2023-07-31T03:42:05;100551.34;;;15.47;nan
2875;BME280;1445;52.600;13.328;2023-07-31T03:44:31;100543.09;;;15.38;nan
2875;BME280;1445;52.600;13.328;2023-07-31T03:46:56;100539.84;;;15.36;nan
2875;BME280;1445;52.600;13.328;2023-07-31T03:49:22;100535.31;;;15.32;nan
2875;BME280;1445;52.600;13.328;2023-07-31T03:51:47;100537.56;;;15.38;nan
2875;BME280;1445;52.600;13.328;2023-07-31T03:54:12;100530.91;;;15.31;nan
2875;BME280;1445;52.600;13.328;2023-07-31T03:56:39;100531.50;;;15.15;nan
2875;BME280;1445;52.600;13.328;2023-07-31T03:59:04;100541.81;;;15.15;nan
2875;BME280;1445;52.600;13.328;2023-07-31T04:01:30;100529.00;;;15.22;nan
2875;BME280;1445;52.600;13.328;2023-07-31T04:03:55;100531.78;;;15.22;nan
2875;BME280;1445;52.600;13.328;2023-07-31T04:06:20;100529.34;;;15.21;nan
2875;BME280;1445;52.600;13.328;2023-07-31T04:08:46;100523.81;;;15.21;nan
2875;BME280;1445;52.600;13.328;2023-07-31T04:11:11;100520.63;;;15.31;nan
2875;BME280;1445;52.600;13.328;2023-07-31T04:13:40;100508.88;;;15.25;nan
2875;BME280;1445;52.600;13.328;2023-07-31T04:16:05;100504.28;;;15.30;nan
2875;BME280;1445;52.600;13.328;2023-07-31T04:18:31;100507.53;;;15.32;nan
2875;BME280;1445;52.600;13.328;2023-07-31T04:20:57;100503.59;;;15.33;nan
2875;BME280;1445;52.600;13.328;2023-07-31T04:23:27;100502.31;;;15.30;nan
2875;BME280;1445;52.600;13.328;2023-07-31T04:25:53;100494.81;;;15.31;nan
2875;BME280;1445;52.600;13.328;2023-07-31T04:28:18;100487.03;;;15.24;nan
2875;BME280;1445;52.600;13.328;2023-07-31T04:30:43;100495.81;;;15.26;nan
2875;BME280;1445;52.600;13.328;2023-07-31T04:33:09;100496.63;;;15.26;nan
2875;BME280;1445;52.600;13.328;2023-07-31T04:35:35;100506.38;;;15.33;nan
2875;BME280;1445;52.600;13.328;2023-07-31T04:38:00;100494.31;;;15.28;nan
2875;BME280;1445;52.600;13.328;2023-07-31T04:40:26;100500.16;;;15.36;nan
2875;BME280;1445;52.600;13.328;2023-07-31T04:42:51;100486.25;;;15.36;nan
2875;BME280;1445;52.600;13.328;2023-07-31T04:45:17;100483.97;;;15.38;nan
2875;BME280;1445;52.600;13.328;2023-07-31T04:47:42;100484.66;;;15.35;nan
2875;BME280;1445;52.600;13.328;2023-07-31T04:50:08;100490.66;;;15.37;nan
2875;BME280;1445;52.600;13.328;2023-07-31T04:52:33;100490.66;;;15.37;nan
2875;BME280;1445;52.600;13.328;2023-07-31T04:54:58;100498.41;;;15.31;nan
2875;BME280;1445;52.600;13.328;2023-07-31T04:57:24;100484.16;;;15.33;nan
2875;BME280;1445;52.600;13.328;2023-07-31T04:59:49;100492.97;;;15.35;nan
2875;BME280;1445;52.600;13.328;2023-07-31T05:02:15;100483.22;;;15.28;nan
2875;BME280;1445;52.600;13.328;2023-07-31T05:04:40;100488.09;;;15.32;nan
2875;BME280;1445;52.600;13.328;2023-07-31T05:07:05;100492.50;;;15.33;nan
2875;BME280;1445;52.600;13.328;2023-07-31T05:09:31;100484.28;;;15.36;nan
2875;BME280;1445;52.600;13.328;2023-07-31T05:11:56;100494.59;;;15.36;nan
2875;BME280;1445;52.600;13.328;2023-07-31T05:14:22;100486.47;;;15.31;nan
2875;BME280;1445;52.600;13.328;2023-07-31T05:16:47;100495.50;;;15.27;nan
2875;BME280;1445;52.600;13.328;2023-07-31T05:19:12;100497.38;;;15.36;nan
2875;BME280;1445;52.600;13.328;2023-07-31T05:21:38;100494.94;;;15.34;nan
2875;BME280;1445;52.600;13.328;2023-07-31T05:24:03;100491.56;;;15.28;nan
2875;BME280;1445;52.600;13.328;2023-07-31T05:26:29;100498.59;;;15.26;nan
2875;BME280;1445;52.600;13.328;2023-07-31T05:28:54;100495.53;;;15.40;nan
2875;BME280;1445;52.600;13.328;2023-07-31T05:31:19;100498.13;;;15.45;nan
2875;BME280;1445;52.600;13.328;2023-07-31T05:33:47;100500.16;;;15.36;nan
2875;BME280;1445;52.600;13.328;2023-07-31T05:36:15;100498.66;;;15.38;nan
2875;BME280;1445;52.600;13.328;2023-07-31T05:38:40;100497.16;;;15.41;nan
2875;BME280;1445;52.600;13.328;2023-07-31T05:41:05;100506.50;;;15.36;nan
2875;BME280;1445;52.600;13.328;2023-07-31T05:43:31;100487.19;;;15.40;nan
2875;BME280;1445;52.600;13.328;2023-07-31T05:45:59;100478.88;;;15.40;nan
2875;BME280;1445;52.600;13.328;2023-07-31T05:48:24;100489.91;;;15.48;nan
2875;BME280;1445;52.600;13.328;2023-07-31T05:50:50;100477.66;;;15.49;nan
2875;BME280;1445;52.600;13.328;2023-07-31T05:53:15;100481.47;;;15.57;nan
2875;BME280;1445;52.600;13.328;2023-07-31T05:55:41;100472.47;;;15.60;nan
2875;BME280;1445;52.600;13.328;2023-07-31T05:58:06;100481.72;;;15.52;nan
2875;BME280;1445;52.600;13.328;2023-07-31T06:00:31;100473.16;;;15.57;nan
2875;BME280;1445;52.600;13.328;2023-07-31T06:02:57;100475.72;;;15.62;nan
2875;BME280;1445;52.600;13.328;2023-07-31T06:05:22;100485.63;;;15.72;nan
2875;BME280;1445;52.600;13.328;2023-07-31T06:07:48;100483.34;;;15.65;nan
2875;BME280;1445;52.600;13.328;2023-07-31T06:10:13;100479.72;;;15.73;nan
2875;BME280;1445;52.600;13.328;2023-07-31T06:12:38;100471.63;;;15.81;nan
2875;BME280;1445;52.600;13.328;2023-07-31T06:15:04;100475.47;;;15.76;nan
2875;BME280;1445;52.600;13.328;2023-07-31T06:17:31;100471.19;;;15.91;nan
2875;BME280;1445;52.600;13.328;2023-07-31T06:19:57;100470.97;;;15.96;nan
2875;BME280;1445;52.600;13.328;2023-07-31T06:22:22;100475.97;;;15.90;nan
2875;BME280;1445;52.600;13.328;2023-07-31T06:24:48;100467.38;;;15.83;nan
2875;BME280;1445;52.600;13.328;2023-07-31T06:27:13;100483.00;;;15.88;nan
2875;BME280;1445;52.600;13.328;2023-07-31T06:29:38;100475.97;;;15.90;nan
2875;BME280;1445;52.600;13.328;2023-07-31T06:32:04;100474.78;;;15.91;nan
2875;BME280;1445;52.600;13.328;2023-07-31T06:34:29;100479.06;;;15.89;nan
2875;BME280;1445;52.600;13.328;2023-07-31T06:36:56;100479.16;;;15.80;nan
2875;BME280;1445;52.600;13.328;2023-07-31T06:39:21;100485.63;;;15.72;nan
2875;BME280;1445;52.600;13.328;2023-07-31T06:41:47;100496.09;;;15.87;nan
2875;BME280;1445;52.600;13.328;2023-07-31T06:44:12;100485.78;;;16.00;nan
2875;BME280;1445;52.600;13.328;2023-07-31T06:46:37;100478.25;;;15.88;nan
2875;BME280;1445;52.600;13.328;2023-07-31T06:49:03;100479.31;;;15.96;nan
2875;BME280;1445;52.600;13.328;2023-07-31T06:51:28;100486.84;;;15.95;nan
2875;BME280;1445;52.600;13.328;2023-07-31T06:53:56;100483.06;;;16.12;nan
2875;BME280;1445;52.600;13.328;2023-07-31T06:56:22;100477.44;;;15.88;nan
2875;BME280;1445;52.600;13.328;2023-07-31T06:58:47;100478.50;;;15.95;nan
2875;BME280;1445;52.600;13.328;2023-07-31T07:01:13;100482.00;;;16.05;nan
2875;BME280;1445;52.600;13.328;2023-07-31T07:03:38;100487.09;;;16.03;nan
2875;BME280;1445;52.600;13.328;2023-07-31T07:06:04;100470.53;;;16.06;nan
2875;BME280;1445;52.600;13.328;2023-07-31T07:08:29;100475.88;;;16.11;nan
2875;BME280;1445;52.600;13.328;2023-07-31T07:10:54;100470.31;;;16.11;nan
2875;BME280;1445;52.600;13.328;2023-07-31T07:13:21;100466.72;;;16.23;nan
2875;BME280;1445;52.600;13.328;2023-07-31T07:15:50;100469.03;;;16.21;nan
2875;BME280;1445;52.600;13.328;2023-07-31T07:18:16;100470.44;;;16.15;nan
2875;BME280;1445;52.600;13.328;2023-07-31T07:20:52;100455.25;;;16.12;nan
2875;BME280;1445;52.600;13.328;2023-07-31T07:23:18;100466.38;;;16.25;nan
2875;BME280;1445;52.600;13.328;2023-07-31T07:25:45;100458.47;;;16.39;nan
2875;BME280;1445;52.600;13.328;2023-07-31T07:28:10;100454.31;;;16.57;nan
2875;BME280;1445;52.600;13.328;2023-07-31T07:30:36;100461.13;;;16.60;nan
2875;BME280;1445;52.600;13.328;2023-07-31T07:33:02;100445.94;;;16.69;nan
2875;BME280;1445;52.600;13.328;2023-07-31T07:35:27;100437.41;;;16.75;nan
2875;BME280;1445;52.600;13.328;2023-07-31T07:37:53;100440.06;;;16.71;nan
2875;BME280;1445;52.600;13.328;2023-07-31T07:40:19;100427.06;;;16.75;nan
2875;BME280;1445;52.600;13.328;2023-07-31T07:42:44;100415.44;;;16.73;nan
2875;BME280;1445;52.600;13.328;2023-07-31T07:45:10;100419.03;;;16.74;nan
2875;BME280;1445;52.600;13.328;2023-07-31T07:47:35;100420.66;;;16.87;nan
2875;BME280;1445;52.600;13.328;2023-07-31T07:50:00;100419.75;;;16.83;nan
2875;BME280;1445;52.600;13.328;2023-07-31T07:52:26;100419.72;;;16.70;nan
2875;BME280;1445;52.600;13.328;2023-07-31T07:54:51;100406.97;;;16.69;nan
2875;BME280;1445;52.600;13.328;2023-07-31T07:57:17;100419.41;;;16.60;nan
2875;BME280;1445;52.600;13.328;2023-07-31T07:59:43;100427.97;;;16.67;nan
2875;BME280;1445;52.600;13.328;2023-07-31T08:02:09;100418.97;;;16.45;nan
2875;BME280;1445;52.600;13.328;2023-07-31T08:04:34;100417.56;;;16.52;nan
2875;BME280;1445;52.600;13.328;2023-07-31T08:06:59;100412.91;;;16.56;nan
2875;BME280;1445;52.600;13.328;2023-07-31T08:09:25;100410.59;;;16.82;nan
2875;BME280;1445;52.600;13.328;2023-07-31T08:11:50;100405.63;;;16.76;nan
2875;BME280;1445;52.600;13.328;2023-07-31T08:14:16;100406.03;;;16.90;nan
2875;BME280;1445;52.600;13.328;2023-07-31T08:16:41;100403.97;;;16.87;nan
2875;BME280;1445;52.600;13.328;2023-07-31T08:19:06;100401.19;;;16.62;nan
2875;BME280;1445;52.600;13.328;2023-07-31T08:21:32;100409.47;;;16.46;nan
2875;BME280;1445;52.600;13.328;2023-07-31T08:23:57;100413.84;;;16.60;nan
2875;BME280;1445;52.600;13.328;2023-07-31T08:26:23;100418.50;;;16.43;nan
2875;BME280;1445;52.600;13.328;2023-07-31T08:28:48;100406.91;;;16.54;nan
2875;BME280;1445;52.600;13.328;2023-07-31T08:31:14;100408.09;;;16.40;nan
2875;BME280;1445;52.600;13.328;2023-07-31T08:33:39;100410.97;;;16.44;nan
2875;BME280;1445;52.600;13.328;2023-07-31T08:36:05;100409.59;;;16.50;nan
2875;BME280;1445;52.600;13.328;2023-07-31T08:38:31;100406.06;;;16.78;nan
2875;BME280;1445;52.600;13.328;2023-07-31T08:40:58;100413.38;;;16.82;nan
2875;BME280;1445;52.600;13.328;2023-07-31T08:43:27;100397.31;;;16.91;nan
2875;BME280;1445;52.600;13.328;2023-07-31T08:45:53;100399.28;;;16.91;nan
2875;BME280;1445;52.600;13.328;2023-07-31T08:48:22;100398.19;;;16.80;nan
2875;BME280;1445;52.600;13.328;2023-07-31T08:50:48;100393.78;;;16.79;nan
2875;BME280;1445;52.600;13.328;2023-07-31T08:53:14;100386.19;;;16.91;nan
2875;BME280;1445;52.600;13.328;2023-07-31T08:55:40;100385.78;;;17.05;nan
2875;BME280;1445;52.600;13.328;2023-07-31T08:58:05;100382.25;;;17.21;nan
2875;BME280;1445;52.600;13.328;2023-07-31T09:00:34;100369.66;;;17.27;nan
2875;BME280;1445;52.600;13.328;2023-07-31T09:03:09;100380.38;;;17.25;nan
2875;BME280;1445;52.600;13.328;2023-07-31T09:05:36;100367.06;;;17.34;nan
2875;BME280;1445;52.600;13.328;2023-07-31T09:08:05;100369.22;;;17.25;nan
2875;BME280;1445;52.600;13.328;2023-07-31T09:10:31;100378.72;;;17.08;nan
2875;BME280;1445;52.600;13.328;2023-07-31T09:12:57;100383.47;;;17.07;nan
2875;BME280;1445;52.600;13.328;2023-07-31T09:15:23;100377.31;;;17.02;nan
2875;BME280;1445;52.600;13.328;2023-07-31T09:17:58;100385.97;;;16.84;nan
2875;BME280;1445;52.600;13.328;2023-07-31T09:20:25;100385.88;;;16.81;nan
2875;BME280;1445;52.600;13.328;2023-07-31T09:22:51;100392.16;;;16.65;nan
2875;BME280;1445;52.600;13.328;2023-07-31T09:27:54;100412.59;;;16.45;nan
2875;BME280;1445;52.600;13.328;2023-07-31T09:30:20;100431.72;;;16.46;nan
2875;BME280;1445;52.600;13.328;2023-07-31T09:32:47;100429.41;;;16.36;nan
2875;BME280;1445;52.600;13.328;2023-07-31T09:35:29;100443.78;;;16.38;nan
2875;BME280;1445;52.600;13.328;2023-07-31T09:37:57;100445.75;;;16.26;nan
2875;BME280;1445;52.600;13.328;2023-07-31T09:40:30;100456.66;;;16.18;nan
2875;BME280;1445;52.600;13.328;2023-07-31T09:43:01;100456.06;;;16.25;nan
2875;BME280;1445;52.600;13.328;2023-07-31T09:45:27;100462.91;;;16.15;nan
2875;BME280;1445;52.600;13.328;2023-07-31T09:47:54;100461.72;;;16.16;nan
2875;BME280;1445;52.600;13.328;2023-07-31T09:50:23;100460.25;;;16.19;nan
2875;BME280;1445;52.600;13.328;2023-07-31T09:52:50;100455.94;;;16.34;nan
2875;BME280;1445;52.600;13.328;2023-07-31T09:55:17;100475.53;;;16.25;nan
2875;BME280;1445;52.600;13.328;2023-07-31T09:57:47;100459.41;;;16.31;nan
2875;BME280;1445;52.600;13.328;2023-07-31T10:00:15;100450.38;;;16.34;nan
2875;BME280;1445;52.600;13.328;2023-07-31T10:02:41;100452.00;;;16.59;nan
2875;BME280;1445;52.600;13.328;2023-07-31T10:05:21;100461.13;;;16.97;nan
2875;BME280;1445;52.600;13.328;2023-07-31T10:07:54;100454.28;;;16.94;nan
2875;BME280;1445;52.600;13.328;2023-07-31T10:10:22;100444.09;;;16.86;nan
2875;BME280;1445;52.600;13.328;2023-07-31T10:12:52;100451.06;;;16.92;nan
2875;BME280;1445;52.600;13.328;2023-07-31T10:15:19;100435.25;;;16.96;nan
2875;BME280;1445;52.600;13.328;2023-07-31T10:17:47;100437.34;;;16.99;nan
2875;BME280;1445;52.600;13.328;2023-07-31T10:20:15;100427.63;;;16.93;nan
2875;BME280;1445;52.600;13.328;2023-07-31T10:22:44;100416.81;;;16.91;nan
2875;BME280;1445;52.600;13.328;2023-07-31T10:25:11;100412.03;;;17.04;nan
2875;BME280;1445;52.600;13.328;2023-07-31T10:27:39;100402.75;;;17.00;nan
2875;BME280;1445;52.600;13.328;2023-07-31T10:30:08;100399.28;;;17.03;nan
2875;BME280;1445;52.600;13.328;2023-07-31T10:32:34;100396.41;;;17.15;nan
2875;BME280;1445;52.600;13.328;2023-07-31T10:35:01;100402.59;;;17.09;nan
2875;BME280;1445;52.600;13.328;2023-07-31T10:37:29;100390.44;;;17.01;nan
2875;BME280;1445;52.600;13.328;2023-07-31T10:40:06;100383.47;;;17.07;nan
2875;BME280;1445;52.600;13.328;2023-07-31T10:45:05;100361.59;;;17.22;nan
2875;BME280;1445;52.600;13.328;2023-07-31T10:47:45;100357.19;;;17.36;nan
2875;BME280;1445;52.600;13.328;2023-07-31T10:50:21;100341.03;;;17.58;nan
2875;BME280;1445;52.600;13.328;2023-07-31T10:52:50;100336.00;;;18.11;nan
2875;BME280;1445;52.600;13.328;2023-07-31T10:55:25;100309.16;;;18.77;nan
2875;BME280;1445;52.600;13.328;2023-07-31T10:57:52;100272.25;;;19.52;nan
2875;BME280;1445;52.600;13.328;2023-07-31T11:02:56;100214.47;;;20.13;nan
2875;BME280;1445;52.600;13.328;2023-07-31T11:10:38;100171.28;;;19.58;nan
2875;BME280;1445;52.600;13.328;2023-07-31T11:13:06;100193.50;;;19.47;nan
2875;BME280;1445;52.600;13.328;2023-07-31T11:15:33;100188.91;;;19.35;nan
2875;BME280;1445;52.600;13.328;2023-07-31T11:18:00;100176.03;;;19.53;nan
2875;BME280;1445;52.600;13.328;2023-07-31T11:20:29;100174.31;;;19.45;nan
2875;BME280;1445;52.600;13.328;2023-07-31T11:23:01;100170.38;;;19.50;nan
2875;BME280;1445;52.600;13.328;2023-07-31T11:25:29;100163.97;;;19.76;nan
2875;BME280;1445;52.600;13.328;2023-07-31T11:27:54;100152.34;;;19.70;nan
2875;BME280;1445;52.600;13.328;2023-07-31T11:30:21;100143.47;;;20.29;nan
2875;BME280;1445;52.600;13.328;2023-07-31T11:32:47;100136.41;;;20.05;nan
2875;BME280;1445;52.600;13.328;2023-07-31T11:35:12;100123.59;;;20.03;nan
2875;BME280;1445;52.600;13.328;2023-07-31T11:37:42;100153.03;;;19.90;nan
2875;BME280;1445;52.600;13.328;2023-07-31T11:40:08;100130.72;;;19.67;nan
2875;BME280;1445;52.600;13.328;2023-07-31T11:42:35;100135.97;;;19.72;nan
2875;BME280;1445;52.600;13.328;2023-07-31T11:45:07;100144.00;;;19.74;nan
2875;BME280;1445;52.600;13.328;2023-07-31T11:47:35;100148.41;;;19.75;nan
2875;BME280;1445;52.600;13.328;2023-07-31T11:50:02;100140.41;;;19.73;nan
2875;BME280;1445;52.600;13.328;2023-07-31T11:52:38;100132.31;;;19.68;nan
2875;BME280;1445;52.600;13.328;2023-07-31T11:55:07;100117.53;;;19.68;nan
2875;BME280;1445;52.600;13.328;2023-07-31T11:57:35;100123.94;;;19.68;nan
2875;BME280;1445;52.600;13.328;2023-07-31T12:00:01;100129.41;;;19.61;nan
2875;BME280;1445;52.600;13.328;2023-07-31T12:02:27;100127.88;;;19.64;nan
2875;BME280;1445;52.600;13.328;2023-07-31T12:04:53;100115.09;;;19.63;nan
2875;BME280;1445;52.600;13.328;2023-07-31T12:07:18;100120.97;;;19.58;nan
2875;BME280;1445;52.600;13.328;2023-07-31T12:09:54;100126.56;;;19.58;nan
2875;BME280;1445;52.600;13.328;2023-07-31T12:12:21;100124.19;;;19.33;nan
2875;BME280;1445;52.600;13.328;2023-07-31T12:14:47;100156.34;;;18.97;nan
2875;BME280;1445;52.600;13.328;2023-07-31T12:17:14;100186.72;;;18.36;nan
2875;BME280;1445;52.600;13.328;2023-07-31T12:19:39;100220.09;;;17.94;nan
2875;BME280;1445;52.600;13.328;2023-07-31T12:22:13;100250.88;;;17.82;nan
2875;BME280;1445;52.600;13.328;2023-07-31T12:24:42;100263.38;;;17.88;nan
2875;BME280;1445;52.600;13.328;2023-07-31T12:27:14;100271.00;;;17.91;nan
2875;BME280;1445;52.600;13.328;2023-07-31T12:29:43;100273.00;;;17.91;nan
2875;BME280;1445;52.600;13.328;2023-07-31T12:32:25;100268.31;;;17.79;nan
2875;BME280;1445;52.600;13.328;2023-07-31T12:34:51;100279.03;;;17.77;nan
2875;BME280;1445;52.600;13.328;2023-07-31T12:37:17;100273.16;;;17.82;nan
2875;BME280;1445;52.600;13.328;2023-07-31T12:39:43;100267.75;;;17.89;nan
2875;BME280;1445;52.600;13.328;2023-07-31T12:42:08;100268.22;;;17.91;nan
2875;BME280;1445;52.600;13.328;2023-07-31T12:44:33;100259.22;;;17.98;nan
2875;BME280;1445;52.600;13.328;2023-07-31T12:46:59;100254.59;;;18.05;nan
2875;BME280;1445;52.600;13.328;2023-07-31T12:49:24;100252.84;;;17.97;nan
2875;BME280;1445;52.600;13.328;2023-07-31T12:51:50;100262.19;;;17.89;nan
2875;BME280;1445;52.600;13.328;2023-07-31T12:54:15;100292.78;;;17.70;nan
2875;BME280;1445;52.600;13.328;2023-07-31T12:56:40;100291.97;;;17.53;nan
2875;BME280;1445;52.600;13.328;2023-07-31T12:59:06;100282.53;;;17.42;nan
2875;BME280;1445;52.600;13.328;2023-07-31T13:01:31;100298.72;;;17.52;nan
2875;BME280;1445;52.600;13.328;2023-07-31T13:03:57;100303.56;;;17.55;nan
2875;BME280;1445;52.600;13.328;2023-07-31T13:06:24;100295.66;;;17.57;nan
2875;BME280;1445;52.600;13.328;2023-07-31T13:08:49;100304.47;;;17.59;nan
2875;BME280;1445;52.600;13.328;2023-07-31T13:11:15;100315.44;;;17.52;nan
2875;BME280;1445;52.600;13.328;2023-07-31T13:13:40;100338.44;;;17.49;nan
2875;BME280;1445;52.600;13.328;2023-07-31T13:16:05;100349.13;;;17.47;nan
2875;BME280;1445;52.600;13.328;2023-07-31T13:18:31;100334.22;;;17.55;nan
2875;BME280;1445;52.600;13.328;2023-07-31T13:20:56;100334.59;;;17.85;nan
2875;BME280;1445;52.600;13.328;2023-07-31T13:23:21;100332.91;;;17.81;nan
2875;BME280;1445;52.600;13.328;2023-07-31T13:25:47;100324.97;;;17.83;nan
2875;BME280;1445;52.600;13.328;2023-07-31T13:28:12;100319.19;;;18.07;nan
2875;BME280;1445;52.600;13.328;2023-07-31T13:30:38;100315.06;;;18.01;nan
2875;BME280;1445;52.600;13.328;2023-07-31T13:33:03;100302.09;;;18.09;nan
2875;BME280;1445;52.600;13.328;2023-07-31T13:35:29;100293.72;;;18.09;nan
2875;BME280;1445;52.600;13.328;2023-07-31T13:37:56;100294.44;;;18.22;nan
2875;BME280;1445;52.600;13.328;2023-07-31T13:40:21;100281.81;;;18.47;nan